sensor_id;sensor_type;location;lat;lon;timestamp;pressure;altitude;pressure_sealevel;temperature;humidity
21182;BME280;10749;46.296;7.524;2023-03-03T00:00:24;94913.97;;;5.39;42.33
21182;BME280;10749;46.296;7.524;2023-03-03T00:02:49;94917.19;;;5.33;42.26
21182;BME280;10749;46.296;7.524;2023-03-03T00:05:14;94913.44;;;5.36;42.21
21182;BME280;10749;46.296;7.524;2023-03-03T00:07:43;94901.81;;;5.38;42.34
21182;BME280;10749;46.296;7.524;2023-03-03T00:10:10;94909.25;;;5.43;42.47
21182;BME280;10749;46.296;7.524;2023-03-03T00:12:47;94907.88;;;5.39;42.39
21182;BME280;10749;46.296;7.524;2023-03-03T00:15:15;94910.28;;;5.32;42.36
21182;BME280;10749;46.296;7.524;2023-03-03T00:17:41;94912.50;;;5.27;42.33
21182;BME280;10749;46.296;7.524;2023-03-03T00:20:35;94910.19;;;5.24;42.47
21182;BME280;10749;46.296;7.524;2023-03-03T00:23:49;94909.66;;;5.21;42.36
21182;BME280;10749;46.296;7.524;2023-03-03T00:26:30;94904.69;;;5.18;42.61
21182;BME280;10749;46.296;7.524;2023-03-03T00:28:59;94909.38;;;5.14;42.41
21182;BME280;10749;46.296;7.524;2023-03-03T00:31:32;94905.28;;;5.02;42.55
21182;BME280;10749;46.296;7.524;2023-03-03T00:36:45;94899.69;;;4.97;42.61
21182;BME280;10749;46.296;7.524;2023-03-03T00:39:18;94910.44;;;4.94;42.77
21182;BME280;10749;46.296;7.524;2023-03-03T00:41:46;94897.38;;;4.84;43.01
21182;BME280;10749;46.296;7.524;2023-03-03T00:52:39;94905.09;;;4.86;42.70
21182;BME280;10749;46.296;7.524;2023-03-03T00:55:06;94899.00;;;4.85;42.83
21182;BME280;10749;46.296;7.524;2023-03-03T00:57:32;94895.72;;;4.83;42.85
21182;BME280;10749;46.296;7.524;2023-03-03T00:59:57;94901.50;;;4.87;43.13
21182;BME280;10749;46.296;7.524;2023-03-03T01:02:22;94905.69;;;4.80;42.87
21182;BME280;10749;46.296;7.524;2023-03-03T01:04:50;94907.19;;;4.73;43.02
21182;BME280;10749;46.296;7.524;2023-03-03T01:07:16;94903.59;;;4.74;43.20
21182;BME280;10749;46.296;7.524;2023-03-03T01:09:42;94888.31;;;4.69;43.37
21182;BME280;10749;46.296;7.524;2023-03-03T01:12:08;94895.22;;;4.70;42.97
21182;BME280;10749;46.296;7.524;2023-03-03T01:14:33;94893.00;;;4.65;43.24
21182;BME280;10749;46.296;7.524;2023-03-03T01:16:59;94887.00;;;4.55;43.44
21182;BME280;10749;46.296;7.524;2023-03-03T01:19:24;94887.00;;;4.55;43.22
21182;BME280;10749;46.296;7.524;2023-03-03T01:21:50;94889.44;;;4.57;43.41
21182;BME280;10749;46.296;7.524;2023-03-03T01:24:16;94891.25;;;4.56;43.25
21182;BME280;10749;46.296;7.524;2023-03-03T01:26:41;94887.78;;;4.56;43.19
21182;BME280;10749;46.296;7.524;2023-03-03T01:29:06;94886.69;;;4.58;43.24
21182;BME280;10749;46.296;7.524;2023-03-03T01:31:31;94886.41;;;4.61;43.54
21182;BME280;10749;46.296;7.524;2023-03-03T01:33:57;94884.59;;;4.62;43.27
21182;BME280;10749;46.296;7.524;2023-03-03T01:36:23;94888.06;;;4.62;43.46
21182;BME280;10749;46.296;7.524;2023-03-03T01:38:48;94884.91;;;4.59;43.56
21182;BME280;10749;46.296;7.524;2023-03-03T01:41:14;94887.41;;;4.51;43.51
21182;BME280;10749;46.296;7.524;2023-03-03T01:43:44;94891.81;;;4.50;43.35
21182;BME280;10749;46.296;7.524;2023-03-03T01:46:33;94889.19;;;4.50;43.57
21182;BME280;10749;46.296;7.524;2023-03-03T01:49:07;94887.84;;;4.46;43.73
21182;BME280;10749;46.296;7.524;2023-03-03T01:51:42;94889.75;;;4.44;43.82
21182;BME280;10749;46.296;7.524;2023-03-03T01:54:19;94895.84;;;4.35;43.79
21182;BME280;10749;46.296;7.524;2023-03-03T01:56:46;94891.72;;;4.33;43.85
21182;BME280;10749;46.296;7.524;2023-03-03T01:59:19;94889.50;;;4.28;43.78
21182;BME280;10749;46.296;7.524;2023-03-03T02:01:46;94891.47;;;4.26;43.94
21182;BME280;10749;46.296;7.524;2023-03-03T02:04:12;94894.63;;;4.20;43.87
21182;BME280;10749;46.296;7.524;2023-03-03T02:06:41;94883.31;;;4.19;43.76
21182;BME280;10749;46.296;7.524;2023-03-03T02:09:17;94884.28;;;4.18;44.15
21182;BME280;10749;46.296;7.524;2023-03-03T02:11:50;94886.22;;;4.26;43.99
21182;BME280;10749;46.296;7.524;2023-03-03T02:14:16;94886.59;;;4.31;43.95
21182;BME280;10749;46.296;7.524;2023-03-03T02:16:42;94878.75;;;4.31;43.92
21182;BME280;10749;46.296;7.524;2023-03-03T02:19:16;94877.09;;;4.30;43.99
21182;BME280;10749;46.296;7.524;2023-03-03T02:21:44;94877.78;;;4.23;44.05
21182;BME280;10749;46.296;7.524;2023-03-03T02:24:31;94879.03;;;4.28;43.76
21182;BME280;10749;46.296;7.524;2023-03-03T02:26:58;94874.06;;;4.25;43.94
21182;BME280;10749;46.296;7.524;2023-03-03T02:29:24;94869.38;;;4.19;44.22
21182;BME280;10749;46.296;7.524;2023-03-03T02:31:49;94874.38;;;4.22;44.02
21182;BME280;10749;46.296;7.524;2023-03-03T02:34:14;94868.56;;;4.18;44.00
21182;BME280;10749;46.296;7.524;2023-03-03T02:36:40;94869.97;;;4.13;44.28
21182;BME280;10749;46.296;7.524;2023-03-03T02:39:13;94873.81;;;4.09;44.16
21182;BME280;10749;46.296;7.524;2023-03-03T02:42:01;94871.47;;;4.06;43.87
21182;BME280;10749;46.296;7.524;2023-03-03T02:44:31;94875.50;;;4.10;43.86
21182;BME280;10749;46.296;7.524;2023-03-03T02:46:57;94873.28;;;4.05;44.03
21182;BME280;10749;46.296;7.524;2023-03-03T02:49:28;94861.16;;;4.14;43.68
21182;BME280;10749;46.296;7.524;2023-03-03T02:51:54;94871.47;;;4.15;44.24
21182;BME280;10749;46.296;7.524;2023-03-03T02:54:22;94867.19;;;4.14;44.31
21182;BME280;10749;46.296;7.524;2023-03-03T02:56:48;94868.31;;;4.12;43.96
21182;BME280;10749;46.296;7.524;2023-03-03T02:59:14;94868.00;;;4.15;43.46
21182;BME280;10749;46.296;7.524;2023-03-03T03:01:40;94870.78;;;4.13;42.75
21182;BME280;10749;46.296;7.524;2023-03-03T03:04:08;94875.50;;;4.10;42.81
21182;BME280;10749;46.296;7.524;2023-03-03T03:06:34;94869.72;;;3.97;43.31
21182;BME280;10749;46.296;7.524;2023-03-03T03:09:00;94871.91;;;3.92;43.80
21182;BME280;10749;46.296;7.524;2023-03-03T03:11:25;94869.97;;;3.94;43.97
21182;BME280;10749;46.296;7.524;2023-03-03T03:13:50;94873.56;;;3.93;44.11
21182;BME280;10749;46.296;7.524;2023-03-03T03:16:17;94870.53;;;3.88;44.26
21182;BME280;10749;46.296;7.524;2023-03-03T03:18:42;94868.59;;;3.90;44.18
21182;BME280;10749;46.296;7.524;2023-03-03T03:21:11;94870.53;;;3.88;44.32
21182;BME280;10749;46.296;7.524;2023-03-03T03:23:37;94867.50;;;3.92;44.38
21182;BME280;10749;46.296;7.524;2023-03-03T03:26:03;94867.50;;;3.92;44.58
21182;BME280;10749;46.296;7.524;2023-03-03T03:28:29;94859.09;;;3.89;44.79
21182;BME280;10749;46.296;7.524;2023-03-03T03:30:54;94859.78;;;3.91;44.23
21182;BME280;10749;46.296;7.524;2023-03-03T03:33:20;94855.50;;;3.90;44.65
21182;BME280;10749;46.296;7.524;2023-03-03T03:35:46;94855.91;;;3.85;44.68
21182;BME280;10749;46.296;7.524;2023-03-03T03:38:13;94861.84;;;3.87;44.75
21182;BME280;10749;46.296;7.524;2023-03-03T03:40:38;94863.75;;;3.85;44.79
21182;BME280;10749;46.296;7.524;2023-03-03T03:43:04;94861.03;;;3.87;44.95
21182;BME280;10749;46.296;7.524;2023-03-03T03:45:29;94859.09;;;3.89;44.93
21182;BME280;10749;46.296;7.524;2023-03-03T03:47:54;94867.34;;;3.94;44.83
21182;BME280;10749;46.296;7.524;2023-03-03T03:50:19;94863.63;;;3.87;45.02
21182;BME280;10749;46.296;7.524;2023-03-03T03:52:46;94872.19;;;3.89;45.22
21182;BME280;10749;46.296;7.524;2023-03-03T03:55:11;94867.09;;;3.87;44.94
21182;BME280;10749;46.296;7.524;2023-03-03T03:57:37;94867.22;;;3.86;44.87
21182;BME280;10749;46.296;7.524;2023-03-03T04:00:04;94862.25;;;3.83;45.02
21182;BME280;10749;46.296;7.524;2023-03-03T04:02:29;94867.38;;;3.84;44.88
21182;BME280;10749;46.296;7.524;2023-03-03T04:04:55;94858.69;;;3.84;45.05
21182;BME280;10749;46.296;7.524;2023-03-03T04:07:20;94874.09;;;3.87;45.26
21182;BME280;10749;46.296;7.524;2023-03-03T04:09:45;94864.59;;;3.86;44.93
21182;BME280;10749;46.296;7.524;2023-03-03T04:12:11;94864.59;;;3.86;44.18
21182;BME280;10749;46.296;7.524;2023-03-03T04:14:36;94864.34;;;3.79;44.57
21182;BME280;10749;46.296;7.524;2023-03-03T04:17:02;94862.25;;;3.73;44.95
21182;BME280;10749;46.296;7.524;2023-03-03T04:19:27;94864.31;;;3.69;44.86
21182;BME280;10749;46.296;7.524;2023-03-03T04:21:52;94858.66;;;3.64;44.97
21182;BME280;10749;46.296;7.524;2023-03-03T04:24:18;94867.94;;;3.68;44.92
21182;BME280;10749;46.296;7.524;2023-03-03T04:26:43;94865.84;;;3.62;45.15
21182;BME280;10749;46.296;7.524;2023-03-03T04:29:09;94864.75;;;3.55;45.17
21182;BME280;10749;46.296;7.524;2023-03-03T04:31:34;94861.72;;;3.50;45.29
21182;BME280;10749;46.296;7.524;2023-03-03T04:33:59;94864.03;;;3.53;45.40
21182;BME280;10749;46.296;7.524;2023-03-03T04:36:25;94860.47;;;3.54;45.29
21182;BME280;10749;46.296;7.524;2023-03-03T04:38:50;94856.91;;;3.55;45.27
21182;BME280;10749;46.296;7.524;2023-03-03T04:41:15;94865.56;;;3.56;45.29
21182;BME280;10749;46.296;7.524;2023-03-03T04:43:40;94863.22;;;3.53;45.38
21182;BME280;10749;46.296;7.524;2023-03-03T04:46:06;94864.03;;;3.53;45.83
21182;BME280;10749;46.296;7.524;2023-03-03T04:48:31;94873.84;;;3.51;45.93
21182;BME280;10749;46.296;7.524;2023-03-03T04:50:56;94875.47;;;3.52;45.66
21182;BME280;10749;46.296;7.524;2023-03-03T04:53:22;94875.88;;;3.57;45.52
21182;BME280;10749;46.296;7.524;2023-03-03T04:55:52;94879.31;;;3.48;45.89
21182;BME280;10749;46.296;7.524;2023-03-03T04:58:18;94883.16;;;3.44;45.69
21182;BME280;10749;46.296;7.524;2023-03-03T05:00:52;94885.38;;;3.39;45.99
21182;BME280;10749;46.296;7.524;2023-03-03T05:03:18;94881.38;;;3.35;45.88
21182;BME280;10749;46.296;7.524;2023-03-03T05:05:45;94892.25;;;3.31;45.93
21182;BME280;10749;46.296;7.524;2023-03-03T05:08:10;94889.75;;;3.29;45.81
21182;BME280;10749;46.296;7.524;2023-03-03T05:10:36;94889.75;;;3.29;45.92
21182;BME280;10749;46.296;7.524;2023-03-03T05:13:01;94895.28;;;3.26;46.04
21182;BME280;10749;46.296;7.524;2023-03-03T05:15:26;94888.66;;;3.22;45.92
21182;BME280;10749;46.296;7.524;2023-03-03T05:17:52;94887.66;;;3.13;46.18
21182;BME280;10749;46.296;7.524;2023-03-03T05:20:17;94892.34;;;3.10;46.29
21182;BME280;10749;46.296;7.524;2023-03-03T05:22:43;94891.13;;;3.14;46.09
21182;BME280;10749;46.296;7.524;2023-03-03T05:25:08;94890.00;;;3.16;46.16
21182;BME280;10749;46.296;7.524;2023-03-03T05:27:35;94894.84;;;3.21;46.32
21182;BME280;10749;46.296;7.524;2023-03-03T05:30:00;94893.31;;;3.18;46.27
21182;BME280;10749;46.296;7.524;2023-03-03T05:32:25;94891.78;;;3.16;46.03
21182;BME280;10749;46.296;7.524;2023-03-03T05:34:51;94894.13;;;3.19;46.34
21182;BME280;10749;46.296;7.524;2023-03-03T05:37:16;94890.84;;;3.17;46.50
21182;BME280;10749;46.296;7.524;2023-03-03T05:39:41;94887.50;;;3.15;46.48
21182;BME280;10749;46.296;7.524;2023-03-03T05:42:11;94885.88;;;3.14;46.28
21182;BME280;10749;46.296;7.524;2023-03-03T05:44:36;94889.59;;;3.21;46.54
21182;BME280;10749;46.296;7.524;2023-03-03T05:47:01;94896.94;;;3.27;46.70
21182;BME280;10749;46.296;7.524;2023-03-03T05:49:26;94900.66;;;3.34;46.29
21182;BME280;10749;46.296;7.524;2023-03-03T05:51:52;94899.81;;;3.34;46.55
21182;BME280;10749;46.296;7.524;2023-03-03T05:54:17;94908.50;;;3.34;46.43
21182;BME280;10749;46.296;7.524;2023-03-03T05:56:43;94907.50;;;3.25;46.37
21182;BME280;10749;46.296;7.524;2023-03-03T05:59:08;94910.41;;;3.32;45.97
21182;BME280;10749;46.296;7.524;2023-03-03T06:01:33;94915.41;;;3.35;45.25
21182;BME280;10749;46.296;7.524;2023-03-03T06:03:59;94914.25;;;3.28;44.62
21182;BME280;10749;46.296;7.524;2023-03-03T06:06:24;94920.16;;;3.20;45.51
21182;BME280;10749;46.296;7.524;2023-03-03T06:08:49;94921.09;;;3.10;46.00
21182;BME280;10749;46.296;7.524;2023-03-03T06:11:15;94922.72;;;3.11;45.97
21182;BME280;10749;46.296;7.524;2023-03-03T06:13:42;94924.41;;;3.12;45.93
21182;BME280;10749;46.296;7.524;2023-03-03T06:16:07;94927.16;;;3.10;46.08
21182;BME280;10749;46.296;7.524;2023-03-03T06:18:33;94920.66;;;3.05;46.26
21182;BME280;10749;46.296;7.524;2023-03-03T06:20:58;94929.06;;;3.08;46.16
21182;BME280;10749;46.296;7.524;2023-03-03T06:23:23;94937.19;;;3.05;46.56
21182;BME280;10749;46.296;7.524;2023-03-03T06:25:49;94933.19;;;3.01;46.81
21182;BME280;10749;46.296;7.524;2023-03-03T06:28:14;94932.34;;;3.01;46.73
21182;BME280;10749;46.296;7.524;2023-03-03T06:30:39;94935.41;;;3.06;46.78
21182;BME280;10749;46.296;7.524;2023-03-03T06:33:05;94940.09;;;3.12;46.97
21182;BME280;10749;46.296;7.524;2023-03-03T06:35:30;94947.81;;;3.13;46.98
21182;BME280;10749;46.296;7.524;2023-03-03T06:37:55;94948.31;;;3.07;47.23
21182;BME280;10749;46.296;7.524;2023-03-03T06:40:21;94951.09;;;3.06;47.19
21182;BME280;10749;46.296;7.524;2023-03-03T06:42:46;94943.66;;;3.11;46.91
21182;BME280;10749;46.296;7.524;2023-03-03T06:45:12;94953.03;;;3.13;46.86
21182;BME280;10749;46.296;7.524;2023-03-03T06:47:38;94954.81;;;3.13;46.86
21182;BME280;10749;46.296;7.524;2023-03-03T06:50:03;94958.28;;;3.13;46.66
21182;BME280;10749;46.296;7.524;2023-03-03T06:52:28;94956.16;;;3.07;46.97
21182;BME280;10749;46.296;7.524;2023-03-03T06:54:56;94960.56;;;2.97;47.28
21182;BME280;10749;46.296;7.524;2023-03-03T06:57:28;94967.03;;;3.03;47.24
21182;BME280;10749;46.296;7.524;2023-03-03T06:59:57;94971.03;;;3.07;47.29
21182;BME280;10749;46.296;7.524;2023-03-03T07:02:24;94972.03;;;3.15;47.47
21182;BME280;10749;46.296;7.524;2023-03-03T07:04:49;94972.59;;;3.19;47.42
21182;BME280;10749;46.296;7.524;2023-03-03T07:07:23;94973.69;;;3.16;47.45
21182;BME280;10749;46.296;7.524;2023-03-03T07:09:52;94976.75;;;3.21;47.57
21182;BME280;10749;46.296;7.524;2023-03-03T07:12:26;94978.97;;;3.26;46.99
21182;BME280;10749;46.296;7.524;2023-03-03T07:15:11;94975.81;;;3.32;46.26
21182;BME280;10749;46.296;7.524;2023-03-03T07:17:43;94981.75;;;3.34;45.99
21182;BME280;10749;46.296;7.524;2023-03-03T07:20:35;94976.19;;;3.18;46.73
21182;BME280;10749;46.296;7.524;2023-03-03T07:23:19;94975.41;;;3.27;46.58
21182;BME280;10749;46.296;7.524;2023-03-03T07:25:45;94973.47;;;3.29;46.68
21182;BME280;10749;46.296;7.524;2023-03-03T07:30:44;94981.75;;;3.34;46.78
21182;BME280;10749;46.296;7.524;2023-03-03T07:33:30;94981.47;;;3.37;47.00
21182;BME280;10749;46.296;7.524;2023-03-03T07:35:59;94976.69;;;3.42;47.09
21182;BME280;10749;46.296;7.524;2023-03-03T07:38:41;94981.75;;;3.44;47.34
21182;BME280;10749;46.296;7.524;2023-03-03T07:41:17;94980.41;;;3.49;47.17
21182;BME280;10749;46.296;7.524;2023-03-03T07:46:28;94986.28;;;3.72;47.41
21182;BME280;10749;46.296;7.524;2023-03-03T07:48:55;94976.50;;;3.84;47.56
21182;BME280;10749;46.296;7.524;2023-03-03T07:51:24;94968.50;;;3.95;47.54
21182;BME280;10749;46.296;7.524;2023-03-03T07:53:53;94974.59;;;4.05;47.57
21182;BME280;10749;46.296;7.524;2023-03-03T07:56:33;94978.03;;;4.15;47.53
21182;BME280;10749;46.296;7.524;2023-03-03T07:59:02;94977.91;;;4.16;48.04
21182;BME280;10749;46.296;7.524;2023-03-03T08:01:50;94983.53;;;4.31;47.81
21182;BME280;10749;46.296;7.524;2023-03-03T08:06:57;94972.91;;;4.61;47.19
21182;BME280;10749;46.296;7.524;2023-03-03T08:09:56;94970.41;;;4.70;47.31
21182;BME280;10749;46.296;7.524;2023-03-03T08:12:41;94966.00;;;4.80;47.54
21182;BME280;10749;46.296;7.524;2023-03-03T08:15:21;94972.19;;;4.88;47.99
21182;BME280;10749;46.296;7.524;2023-03-03T08:17:48;94968.00;;;5.05;47.79
21182;BME280;10749;46.296;7.524;2023-03-03T08:22:58;94962.06;;;5.30;47.59
21182;BME280;10749;46.296;7.524;2023-03-03T08:25:23;94960.38;;;5.39;47.60
21182;BME280;10749;46.296;7.524;2023-03-03T08:27:49;94961.91;;;5.41;47.75
21182;BME280;10749;46.296;7.524;2023-03-03T08:30:14;94968.31;;;5.56;47.75
21182;BME280;10749;46.296;7.524;2023-03-03T08:32:39;94959.94;;;5.71;47.71
21182;BME280;10749;46.296;7.524;2023-03-03T08:35:05;94955.06;;;5.76;47.56
21182;BME280;10749;46.296;7.524;2023-03-03T08:37:30;94956.28;;;5.81;47.58
21182;BME280;10749;46.296;7.524;2023-03-03T08:39:55;94946.41;;;5.93;47.37
21182;BME280;10749;46.296;7.524;2023-03-03T08:42:21;94950.78;;;6.02;47.29
21182;BME280;10749;46.296;7.524;2023-03-03T08:44:46;94942.69;;;5.95;47.42
21182;BME280;10749;46.296;7.524;2023-03-03T08:47:11;94946.22;;;6.04;47.39
21182;BME280;10749;46.296;7.524;2023-03-03T08:49:36;94943.59;;;6.04;47.34
21182;BME280;10749;46.296;7.524;2023-03-03T08:52:02;94940.34;;;6.10;47.22
21182;BME280;10749;46.296;7.524;2023-03-03T08:54:28;94933.97;;;6.13;47.30
21182;BME280;10749;46.296;7.524;2023-03-03T08:56:53;94935.16;;;6.18;47.30
21182;BME280;10749;46.296;7.524;2023-03-03T08:59:18;94927.78;;;6.22;47.13
21182;BME280;10749;46.296;7.524;2023-03-03T09:01:44;94934.72;;;6.23;47.19
21182;BME280;10749;46.296;7.524;2023-03-03T09:04:10;94927.72;;;6.31;47.26
21182;BME280;10749;46.296;7.524;2023-03-03T09:06:35;94914.13;;;6.36;47.06
21182;BME280;10749;46.296;7.524;2023-03-03T09:09:01;94913.81;;;6.39;46.90
21182;BME280;10749;46.296;7.524;2023-03-03T09:11:28;94918.25;;;6.38;46.72
21182;BME280;10749;46.296;7.524;2023-03-03T09:14:06;94920.09;;;6.46;46.94
21182;BME280;10749;46.296;7.524;2023-03-03T09:16:39;94923.03;;;6.61;46.86
21182;BME280;10749;46.296;7.524;2023-03-03T09:19:29;94916.53;;;6.73;46.66
21182;BME280;10749;46.296;7.524;2023-03-03T09:22:01;94913.03;;;6.90;46.20
21182;BME280;10749;46.296;7.524;2023-03-03T09:24:34;94911.88;;;6.92;46.14
21182;BME280;10749;46.296;7.524;2023-03-03T09:27:00;94907.13;;;6.96;46.53
21182;BME280;10749;46.296;7.524;2023-03-03T09:29:30;94914.25;;;7.04;46.79
21182;BME280;10749;46.296;7.524;2023-03-03T09:31:56;94912.31;;;7.14;46.59
21182;BME280;10749;46.296;7.524;2023-03-03T09:37:25;94916.53;;;7.32;46.46
21182;BME280;10749;46.296;7.524;2023-03-03T09:39:53;94913.47;;;7.45;46.26
21182;BME280;10749;46.296;7.524;2023-03-03T09:42:41;94912.69;;;7.61;46.05
21182;BME280;10749;46.296;7.524;2023-03-03T09:48:24;94900.69;;;7.66;46.15
21182;BME280;10749;46.296;7.524;2023-03-03T09:53:41;94896.28;;;7.91;45.96
21182;BME280;10749;46.296;7.524;2023-03-03T09:56:20;94884.75;;;7.92;45.79
21182;BME280;10749;46.296;7.524;2023-03-03T10:06:55;94873.97;;;8.44;45.90
21182;BME280;10749;46.296;7.524;2023-03-03T10:12:26;94860.91;;;8.66;45.68
21182;BME280;10749;46.296;7.524;2023-03-03T10:17:53;94854.38;;;9.09;45.84
21182;BME280;10749;46.296;7.524;2023-03-03T10:20:46;94843.41;;;9.28;45.58
21182;BME280;10749;46.296;7.524;2023-03-03T10:23:20;94844.97;;;9.46;45.66
21182;BME280;10749;46.296;7.524;2023-03-03T10:31:36;94835.28;;;9.92;45.52
21182;BME280;10749;46.296;7.524;2023-03-03T10:54:35;94837.13;;;11.33;45.39
21182;BME280;10749;46.296;7.524;2023-03-03T10:57:34;94836.44;;;11.60;45.62
21182;BME280;10749;46.296;7.524;2023-03-03T11:03:22;94827.72;;;11.95;45.19
21182;BME280;10749;46.296;7.524;2023-03-03T11:05:59;94825.44;;;12.14;44.95
21182;BME280;10749;46.296;7.524;2023-03-03T11:08:28;94824.31;;;12.23;44.76
21182;BME280;10749;46.296;7.524;2023-03-03T11:11:08;94822.41;;;12.38;44.97
21182;BME280;10749;46.296;7.524;2023-03-03T11:16:37;94812.09;;;12.49;44.34
21182;BME280;10749;46.296;7.524;2023-03-03T11:30:26;94800.31;;;12.86;43.90
21182;BME280;10749;46.296;7.524;2023-03-03T11:35:44;94791.69;;;12.84;43.04
21182;BME280;10749;46.296;7.524;2023-03-03T11:38:31;94787.47;;;12.90;42.78
21182;BME280;10749;46.296;7.524;2023-03-03T11:41:03;94788.44;;;12.82;42.12
21182;BME280;10749;46.296;7.524;2023-03-03T11:43:44;94780.31;;;12.90;41.87
21182;BME280;10749;46.296;7.524;2023-03-03T11:46:17;94783.00;;;12.97;41.67
21182;BME280;10749;46.296;7.524;2023-03-03T11:48:58;94778.03;;;13.15;41.77
21182;BME280;10749;46.296;7.524;2023-03-03T11:51:49;94769.91;;;13.23;41.18
21182;BME280;10749;46.296;7.524;2023-03-03T11:54:26;94765.06;;;13.40;41.21
21182;BME280;10749;46.296;7.524;2023-03-03T11:56:59;94751.41;;;13.63;41.39
21182;BME280;10749;46.296;7.524;2023-03-03T12:04:55;94754.56;;;13.86;41.51
21182;BME280;10749;46.296;7.524;2023-03-03T12:07:41;94747.63;;;14.05;41.32
21182;BME280;10749;46.296;7.524;2023-03-03T12:10:19;94740.69;;;14.17;40.94
21182;BME280;10749;46.296;7.524;2023-03-03T12:13:00;94739.84;;;14.16;41.01
21182;BME280;10749;46.296;7.524;2023-03-03T12:18:05;94727.59;;;14.42;40.53
21182;BME280;10749;46.296;7.524;2023-03-03T12:20:50;94725.56;;;14.57;40.23
21182;BME280;10749;46.296;7.524;2023-03-03T12:29:31;94721.22;;;14.29;40.11
21182;BME280;10749;46.296;7.524;2023-03-03T12:37:02;94717.09;;;14.79;39.55
21182;BME280;10749;46.296;7.524;2023-03-03T12:39:39;94710.69;;;15.00;39.25
21182;BME280;10749;46.296;7.524;2023-03-03T12:44:58;94704.16;;;14.96;38.71
21182;BME280;10749;46.296;7.524;2023-03-03T12:52:59;94699.06;;;14.95;38.19
21182;BME280;10749;46.296;7.524;2023-03-03T13:04:12;94694.72;;;15.07;37.95
21182;BME280;10749;46.296;7.524;2023-03-03T13:06:52;94680.22;;;15.34;38.28
21182;BME280;10749;46.296;7.524;2023-03-03T13:12:03;94687.06;;;15.61;37.01
21182;BME280;10749;46.296;7.524;2023-03-03T13:17:51;94675.75;;;15.73;36.61
21182;BME280;10749;46.296;7.524;2023-03-03T13:20:28;94670.91;;;15.88;36.92
21182;BME280;10749;46.296;7.524;2023-03-03T13:28:03;94681.66;;;15.75;36.44
21182;BME280;10749;46.296;7.524;2023-03-03T13:30:32;94671.34;;;15.85;36.29
21182;BME280;10749;46.296;7.524;2023-03-03T13:33:08;94671.66;;;16.26;36.30
21182;BME280;10749;46.296;7.524;2023-03-03T13:35:55;94669.63;;;16.46;36.52
21182;BME280;10749;46.296;7.524;2023-03-03T13:38:28;94673.31;;;16.45;36.43
21182;BME280;10749;46.296;7.524;2023-03-03T13:41:30;94667.78;;;16.22;36.22
21182;BME280;10749;46.296;7.524;2023-03-03T13:44:41;94666.41;;;16.38;35.64
21182;BME280;10749;46.296;7.524;2023-03-03T13:47:44;94667.22;;;16.38;35.25
21182;BME280;10749;46.296;7.524;2023-03-03T13:50:18;94659.50;;;16.48;35.17
21182;BME280;10749;46.296;7.524;2023-03-03T13:52:59;94667.44;;;16.37;34.67
21182;BME280;10749;46.296;7.524;2023-03-03T13:55:42;94659.66;;;16.53;35.33
21182;BME280;10749;46.296;7.524;2023-03-03T13:58:25;94662.97;;;16.55;34.37
21182;BME280;10749;46.296;7.524;2023-03-03T14:01:18;94646.44;;;16.65;34.36
21182;BME280;10749;46.296;7.524;2023-03-03T14:06:31;94657.94;;;16.66;34.62
21182;BME280;10749;46.296;7.524;2023-03-03T14:09:17;94662.09;;;16.98;34.72
21182;BME280;10749;46.296;7.524;2023-03-03T14:12:03;94652.53;;;17.08;34.23
21182;BME280;10749;46.296;7.524;2023-03-03T14:14:41;94649.06;;;16.72;33.87
21182;BME280;10749;46.296;7.524;2023-03-03T14:17:31;94650.09;;;16.89;33.87
21182;BME280;10749;46.296;7.524;2023-03-03T14:20:27;94646.03;;;17.34;33.66
21182;BME280;10749;46.296;7.524;2023-03-03T14:22:58;94639.53;;;17.60;33.50
21182;BME280;10749;46.296;7.524;2023-03-03T14:25:25;94646.06;;;17.64;33.08
21182;BME280;10749;46.296;7.524;2023-03-03T14:28:10;94644.16;;;17.83;32.75
21182;BME280;10749;46.296;7.524;2023-03-03T14:30:42;94648.84;;;17.99;32.53
21182;BME280;10749;46.296;7.524;2023-03-03T14:35:43;94647.84;;;18.35;32.57
21182;BME280;10749;46.296;7.524;2023-03-03T14:38:16;94639.72;;;18.30;32.60
21182;BME280;10749;46.296;7.524;2023-03-03T14:40:44;94630.84;;;18.18;32.13
21182;BME280;10749;46.296;7.524;2023-03-03T14:43:35;94638.75;;;18.36;32.21
21182;BME280;10749;46.296;7.524;2023-03-03T14:48:56;94652.78;;;18.61;31.60
21182;BME280;10749;46.296;7.524;2023-03-03T14:57:19;94659.38;;;20.47;33.83
21182;BME280;10749;46.296;7.524;2023-03-03T15:00:07;94662.41;;;21.05;32.86
21182;BME280;10749;46.296;7.524;2023-03-03T15:05:19;94655.34;;;20.99;31.35
21182;BME280;10749;46.296;7.524;2023-03-03T15:07:49;94661.34;;;21.45;32.07
21182;BME280;10749;46.296;7.524;2023-03-03T15:10:41;94645.22;;;21.72;31.34
21182;BME280;10749;46.296;7.524;2023-03-03T15:15:52;94653.47;;;19.71;28.17
21182;BME280;10749;46.296;7.524;2023-03-03T15:18:29;94646.09;;;18.17;29.48
21182;BME280;10749;46.296;7.524;2023-03-03T15:21:08;94644.97;;;17.83;29.50
21182;BME280;10749;46.296;7.524;2023-03-03T15:26:12;94646.06;;;15.18;29.00
21182;BME280;10749;46.296;7.524;2023-03-03T15:31:52;94642.41;;;13.69;30.12
21182;BME280;10749;46.296;7.524;2023-03-03T15:37:37;94642.63;;;12.94;31.89
21182;BME280;10749;46.296;7.524;2023-03-03T15:40:17;94652.34;;;12.74;32.18
21182;BME280;10749;46.296;7.524;2023-03-03T15:43:52;94657.31;;;12.49;32.69
21182;BME280;10749;46.296;7.524;2023-03-03T15:48:45;94658.75;;;12.52;32.64
21182;BME280;10749;46.296;7.524;2023-03-03T15:54:27;94651.97;;;12.15;33.21
21182;BME280;10749;46.296;7.524;2023-03-03T15:57:09;94658.66;;;12.04;33.50
21182;BME280;10749;46.296;7.524;2023-03-03T16:00:12;94673.78;;;11.82;33.77
21182;BME280;10749;46.296;7.524;2023-03-03T16:02:54;94662.66;;;11.72;33.84
21182;BME280;10749;46.296;7.524;2023-03-03T16:05:24;94678.31;;;11.67;34.48
21182;BME280;10749;46.296;7.524;2023-03-03T16:08:01;94678.56;;;11.72;34.26
21182;BME280;10749;46.296;7.524;2023-03-03T16:11:09;94673.63;;;11.69;35.25
21182;BME280;10749;46.296;7.524;2023-03-03T16:16:12;94693.44;;;11.52;35.03
21182;BME280;10749;46.296;7.524;2023-03-03T16:18:57;94696.75;;;11.39;35.09
21182;BME280;10749;46.296;7.524;2023-03-03T16:27:05;94711.34;;;11.14;35.02
21182;BME280;10749;46.296;7.524;2023-03-03T16:34:56;94710.25;;;10.58;35.22